Time;durP1;ratioP1;P1;durP2;ratioP2;P2;SDS_P1;SDS_P2;PMS_P1;PMS_P2;Temp;Humidity;BMP_temperature;BMP_pressure;BME280_temperature;BME280_humidity;BME280_pressure;Samples;Min_cycle;Max_cycle;Signal;HPM_P1;HPM_P2
2021/04/11 00:00:26;;;;;;;75.97;37.85;;;;;;;5.74;100.00;100191.06;4987925;28;20050;-79
2021/04/11 00:02:52;;;;;;;70.15;37.22;;;;;;;5.73;100.00;100187.56;4987674;28;20038;-79
2021/04/11 00:05:20;;;;;;;68.32;35.85;;;;;;;5.71;100.00;100191.38;4991810;28;20060;-79
2021/04/11 00:07:46;;;;;;;74.38;37.17;;;;;;;5.68;100.00;100191.66;4984021;28;20050;-77
2021/04/11 00:10:22;;;;;;;63.90;33.78;;;;;;;5.66;100.00;100187.31;5016530;28;20034;-81
2021/04/11 00:12:47;;;;;;;65.47;32.97;;;;;;;5.62;100.00;100183.28;4986613;28;20130;-78
2021/04/11 00:15:14;;;;;;;68.10;35.85;;;;;;;5.62;100.00;100179.78;4983686;28;20177;-79
2021/04/11 00:17:39;;;;;;;57.45;31.92;;;;;;;5.61;100.00;100180.75;5000359;28;20038;-79
2021/04/11 00:20:06;;;;;;;62.45;34.10;;;;;;;5.61;100.00;100178.94;4980886;28;20052;-79
2021/04/11 00:22:31;;;;;;;55.75;32.03;;;;;;;5.55;100.00;100176.88;5018170;28;20038;-80
2021/04/11 00:24:57;;;;;;;57.75;32.15;;;;;;;5.53;100.00;100178.84;4982502;28;20583;-79
2021/04/11 00:27:22;;;;;;;55.97;30.92;;;;;;;5.50;100.00;100181.78;5003078;28;20065;-79
2021/04/11 00:29:48;;;;;;;56.75;32.47;;;;;;;5.49;100.00;100187.25;5001289;28;20046;-79
2021/04/11 00:32:13;;;;;;;57.55;31.38;;;;;;;5.51;100.00;100180.81;4968734;28;20053;-78
2021/04/11 00:34:39;;;;;;;59.22;32.58;;;;;;;5.46;100.00;100183.06;5017269;28;20047;-80
2021/04/11 00:37:04;;;;;;;59.15;33.88;;;;;;;5.44;100.00;100182.38;4988266;28;20474;-78
2021/04/11 00:39:30;;;;;;;56.42;33.08;;;;;;;5.40;100.00;100178.31;5004440;28;20061;-79
2021/04/11 00:42:01;;;;;;;57.30;32.78;;;;;;;5.39;100.00;100181.97;4979997;28;20518;-81
2021/04/11 00:44:27;;;;;;;64.93;35.08;;;;;;;5.39;100.00;100185.47;4983879;28;20043;-80
2021/04/11 00:46:55;;;;;;;66.00;35.20;;;;;;;5.33;100.00;100183.41;4986362;28;20038;-80
2021/04/11 00:49:39;;;;;;;63.88;34.42;;;;;;;5.33;100.00;100193.19;4980404;28;20129;-81
2021/04/11 00:52:08;;;;;;;60.50;32.28;;;;;;;5.30;100.00;100185.50;5011788;28;20052;-79
2021/04/11 00:54:34;;;;;;;66.78;35.42;;;;;;;5.28;100.00;100182.16;4976423;28;20030;-81
2021/04/11 00:57:01;;;;;;;61.90;34.63;;;;;;;5.28;100.00;100180.31;5013919;28;20108;-81
2021/04/11 00:59:27;;;;;;;68.53;34.28;;;;;;;5.25;100.00;100185.94;4997855;28;20081;-79
2021/04/11 01:01:52;;;;;;;60.65;31.40;;;;;;;5.22;100.00;100180.91;4984021;28;20665;-81
2021/04/11 01:04:18;;;;;;;58.80;31.42;;;;;;;5.23;100.00;100171.09;4983530;28;20509;-79
2021/04/11 01:06:48;;;;;;;57.05;32.45;;;;;;;5.20;100.00;100172.22;5002552;28;20154;-81
2021/04/11 01:09:21;;;;;;;49.05;29.30;;;;;;;5.12;100.00;100175.63;4974995;28;20054;-79
2021/04/11 01:11:47;;;;;;;50.10;28.58;;;;;;;5.17;100.00;100176.00;5000061;28;20099;-80
2021/04/11 01:14:15;;;;;;;40.80;24.20;;;;;;;5.11;100.00;100167.78;4985505;28;20149;-79
2021/04/11 01:16:41;;;;;;;48.67;27.65;;;;;;;5.03;100.00;100163.16;4986726;28;20058;-82
2021/04/11 01:19:17;;;;;;;45.70;26.52;;;;;;;5.05;100.00;100168.34;4985253;28;20066;-78
2021/04/11 01:21:58;;;;;;;50.85;30.25;;;;;;;5.06;100.00;100176.19;4985781;28;20038;-82
2021/04/11 01:24:36;;;;;;;48.60;28.92;;;;;;;5.01;100.00;100172.31;4979943;28;20689;-78
2021/04/11 01:27:05;;;;;;;50.13;28.95;;;;;;;5.01;100.00;100173.13;4978210;28;20061;-78
2021/04/11 01:29:32;;;;;;;51.40;28.48;;;;;;;4.98;100.00;100165.44;4999291;28;20121;-78
2021/04/11 01:31:58;;;;;;;43.42;27.55;;;;;;;4.96;100.00;100159.41;4984568;28;20039;-78
2021/04/11 01:34:23;;;;;;;44.03;26.40;;;;;;;4.96;100.00;100162.91;4987845;28;20101;-81
2021/04/11 01:36:50;;;;;;;45.30;24.88;;;;;;;4.93;100.00;100162.38;5004371;28;20142;-80
2021/04/11 01:39:23;;;;;;;46.50;27.05;;;;;;;4.92;100.00;100160.66;4981616;28;20050;-81
2021/04/11 01:41:51;;;;;;;45.97;26.95;;;;;;;4.91;100.00;100166.97;5001058;28;20118;-79
2021/04/11 01:44:20;;;;;;;43.75;26.67;;;;;;;4.86;100.00;100163.91;4981292;28;20496;-81
2021/04/11 01:46:48;;;;;;;44.30;27.58;;;;;;;4.83;100.00;100169.50;4990944;28;20034;-79
2021/04/11 01:49:14;;;;;;;41.33;26.70;;;;;;;4.81;100.00;100164.34;4988995;28;21545;-81
2021/04/11 01:51:45;;;;;;;44.97;27.67;;;;;;;4.80;100.00;100164.47;4989887;28;20464;-82
2021/04/11 01:54:15;;;;;;;42.60;25.63;;;;;;;4.80;100.00;100157.34;4985518;28;20454;-79
2021/04/11 01:56:44;;;;;;;44.05;27.50;;;;;;;4.78;100.00;100148.69;4989759;28;20053;-79
2021/04/11 01:59:12;;;;;;;44.15;27.55;;;;;;;4.79;100.00;100157.50;4987908;28;20060;-81
2021/04/11 02:01:40;;;;;;;47.10;28.98;;;;;;;4.74;100.00;100166.72;4988425;28;20398;-80
2021/04/11 02:04:07;;;;;;;47.30;28.45;;;;;;;4.70;100.00;100172.47;4982755;28;20093;-80
2021/04/11 02:06:42;;;;;;;48.60;30.73;;;;;;;4.72;100.00;100165.22;4986638;28;20054;-78
2021/04/11 02:09:19;;;;;;;53.63;30.92;;;;;;;4.73;100.00;100158.91;4983460;28;20121;-79
2021/04/11 02:11:46;;;;;;;54.50;31.48;;;;;;;4.61;100.00;100174.16;4985448;28;20038;-82
2021/04/11 02:14:12;;;;;;;49.05;29.92;;;;;;;4.61;100.00;100163.53;4988250;28;20050;-82
2021/04/11 02:16:37;;;;;;;46.63;27.85;;;;;;;4.56;100.00;100163.09;4982898;28;20042;-79
2021/04/11 02:19:12;;;;;;;47.05;29.75;;;;;;;4.59;100.00;100159.34;4987307;28;20042;-78
2021/04/11 02:21:40;;;;;;;47.03;27.50;;;;;;;4.59;100.00;100165.47;5014185;28;20038;-80
2021/04/11 02:24:08;;;;;;;46.42;28.35;;;;;;;4.56;100.00;100163.09;4988540;28;20121;-78
2021/04/11 02:26:34;;;;;;;37.97;24.98;;;;;;;4.49;100.00;100160.19;4990415;28;20046;-78
2021/04/11 02:29:05;;;;;;;37.83;24.20;;;;;;;4.46;100.00;100168.44;4987216;28;20046;-77
2021/04/11 02:31:32;;;;;;;33.63;22.75;;;;;;;4.43;100.00;100174.03;4988570;28;20101;-79
2021/04/11 02:34:01;;;;;;;29.55;20.60;;;;;;;4.44;100.00;100172.22;4986954;28;20050;-77
2021/04/11 02:36:29;;;;;;;25.83;18.45;;;;;;;4.37;100.00;100166.59;4988839;28;20038;-77
2021/04/11 02:38:57;;;;;;;26.63;17.60;;;;;;;4.33;100.00;100172.34;4981570;28;20057;-78
2021/04/11 02:41:25;;;;;;;25.05;17.73;;;;;;;4.28;100.00;100173.59;4995220;28;20080;-78
2021/04/11 02:43:50;;;;;;;22.23;14.95;;;;;;;4.24;100.00;100168.69;5002515;28;20038;-80
2021/04/11 02:46:17;;;;;;;22.98;16.30;;;;;;;4.21;100.00;100164.50;4997490;28;20521;-79
2021/04/11 02:48:42;;;;;;;22.15;16.27;;;;;;;4.16;100.00;100176.50;4999010;28;20100;-79
2021/04/11 02:51:09;;;;;;;22.63;16.30;;;;;;;4.13;100.00;100185.59;4993424;28;20506;-78
2021/04/11 02:53:35;;;;;;;20.13;14.98;;;;;;;4.08;100.00;100195.78;4985348;28;20042;-80
2021/04/11 02:56:01;;;;;;;22.00;14.52;;;;;;;4.02;100.00;100191.03;4983842;28;20049;-80
2021/04/11 02:58:27;;;;;;;23.10;16.52;;;;;;;3.98;100.00;100193.13;4987900;28;20066;-79
2021/04/11 03:00:58;;;;;;;24.10;16.77;;;;;;;3.94;100.00;100201.47;4984502;28;20101;-78
2021/04/11 03:03:23;;;;;;;27.35;17.55;;;;;;;3.86;100.00;100206.66;4982635;28;20438;-79
2021/04/11 03:05:48;;;;;;;26.42;19.40;;;;;;;3.80;100.00;100213.34;5022029;28;20050;-80
2021/04/11 03:08:18;;;;;;;30.48;20.27;;;;;;;3.75;100.00;100216.38;4987804;28;20042;-78
2021/04/11 03:11:01;;;;;;;31.92;19.55;;;;;;;3.73;100.00;100220.13;5021118;28;20057;-79
2021/04/11 03:13:27;;;;;;;35.60;21.42;;;;;;;3.75;100.00;100219.03;4984408;28;20660;-79
2021/04/11 03:15:56;;;;;;;40.78;22.02;;;;;;;3.76;100.00;100212.75;4996996;28;20046;-79
2021/04/11 03:18:22;;;;;;;36.70;21.80;;;;;;;3.72;100.00;100215.81;4987292;28;20483;-80
2021/04/11 03:20:49;;;;;;;35.95;22.85;;;;;;;3.58;100.00;100214.38;4989625;28;20042;-79
2021/04/11 03:23:17;;;;;;;36.40;22.05;;;;;;;3.56;100.00;100232.22;5001752;28;20064;-79
2021/04/11 03:25:43;;;;;;;36.03;23.50;;;;;;;3.60;100.00;100223.88;4983414;28;20262;-81
2021/04/11 03:28:38;;;;;;;37.60;22.58;;;;;;;3.53;100.00;100238.63;4999145;28;20377;-78
2021/04/11 03:31:20;;;;;;;40.60;25.10;;;;;;;3.46;100.00;100247.25;4983515;28;20054;-81
2021/04/11 03:33:50;;;;;;;34.83;21.55;;;;;;;3.44;100.00;100233.28;4999109;28;20124;-82
2021/04/11 03:36:19;;;;;;;41.17;23.50;;;;;;;3.39;100.00;100239.84;5014743;28;20045;-81
2021/04/11 03:38:46;;;;;;;40.20;24.75;;;;;;;3.38;100.00;100246.09;4978552;28;20042;-77
2021/04/11 03:41:14;;;;;;;43.17;25.73;;;;;;;3.39;100.00;100249.59;4971745;28;20536;-82
2021/04/11 03:43:50;;;;;;;42.93;26.20;;;;;;;3.44;100.00;100239.44;4977767;28;20050;-80
2021/04/11 03:46:20;;;;;;;42.00;26.50;;;;;;;3.33;100.00;100248.28;5017599;28;20298;-79
2021/04/11 03:49:24;;;;;;;45.58;26.05;;;;;;;3.39;100.00;100244.28;4975668;28;20077;-81
2021/04/11 03:51:53;;;;;;;42.45;24.52;;;;;;;3.31;100.00;100250.25;4971383;28;20074;-78
2021/04/11 03:54:29;;;;;;;40.58;25.45;;;;;;;3.27;100.00;100256.78;4986151;28;20049;-80
2021/04/11 03:57:09;;;;;;;41.75;24.63;;;;;;;3.25;100.00;100261.41;4983678;28;20145;-80
2021/04/11 03:59:49;;;;;;;41.60;23.80;;;;;;;3.27;100.00;100259.44;4984829;28;20120;-79
2021/04/11 04:02:18;;;;;;;39.08;23.75;;;;;;;3.21;100.00;100269.72;5000154;28;20140;-78
2021/04/11 04:04:46;;;;;;;40.30;25.25;;;;;;;3.24;100.00;100265.00;4986076;28;20053;-79
2021/04/11 04:07:14;;;;;;;36.67;23.50;;;;;;;3.14;100.00;100262.28;4969574;28;20049;-80
2021/04/11 04:09:51;;;;;;;36.50;20.40;;;;;;;3.11;100.00;100269.66;4977516;28;20496;-80
2021/04/11 04:12:53;;;;;;;41.03;23.27;;;;;;;3.10;100.00;100281.22;4972393;28;20412;-79
2021/04/11 04:15:35;;;;;;;40.95;24.90;;;;;;;3.11;100.00;100277.63;4983148;28;20054;-80
2021/04/11 04:18:06;;;;;;;46.42;28.58;;;;;;;3.09;100.00;100283.03;4972784;28;20062;-79
2021/04/11 04:20:43;;;;;;;43.58;26.38;;;;;;;3.10;100.00;100294.47;4984998;28;20129;-79
2021/04/11 04:23:25;;;;;;;45.22;28.08;;;;;;;3.08;100.00;100304.38;4980452;28;20038;-80
2021/04/11 04:26:12;;;;;;;46.33;26.95;;;;;;;3.05;100.00;100302.84;4985611;28;20046;-81
2021/04/11 04:28:40;;;;;;;48.70;28.70;;;;;;;3.02;100.00;100307.53;4987052;28;20048;-77
2021/04/11 04:31:42;;;;;;;46.45;23.05;;;;;;;2.98;100.00;100306.13;5020702;28;20042;-76
2021/04/11 04:34:22;;;;;;;53.40;30.73;;;;;;;2.99;100.00;100297.19;4986506;28;20113;-80
2021/04/11 04:36:58;;;;;;;49.10;29.38;;;;;;;2.96;100.00;100290.31;4983247;28;20053;-79
2021/04/11 04:39:27;;;;;;;49.15;29.27;;;;;;;2.99;100.00;100302.47;4971049;28;20148;-78
2021/04/11 04:42:09;;;;;;;56.22;31.50;;;;;;;2.94;100.00;100298.41;4988353;28;20085;-77
2021/04/11 04:44:40;;;;;;;52.60;30.58;;;;;;;2.90;100.00;100304.91;5020037;28;20046;-78
2021/04/11 04:47:11;;;;;;;53.47;31.25;;;;;;;2.87;100.00;100304.34;4974551;28;20038;-77
2021/04/11 04:49:44;;;;;;;58.35;33.47;;;;;;;2.92;100.00;100305.66;4980394;28;20090;-78
2021/04/11 04:52:19;;;;;;;53.63;33.35;;;;;;;2.94;100.00;100306.38;4997690;28;20058;-79
2021/04/11 04:54:55;;;;;;;54.65;31.00;;;;;;;3.01;100.00;100316.47;4982783;28;20195;-78
2021/04/11 04:57:29;;;;;;;52.58;28.85;;;;;;;2.97;100.00;100325.66;4978958;28;20105;-78
2021/04/11 05:00:06;;;;;;;50.05;28.50;;;;;;;2.93;100.00;100328.56;4984516;28;20129;-78
2021/04/11 05:02:54;;;;;;;48.78;28.13;;;;;;;2.92;100.00;100326.84;4987617;28;20131;-78
2021/04/11 05:05:21;;;;;;;57.37;32.57;;;;;;;2.90;100.00;100331.44;4983953;28;20510;-80
2021/04/11 05:08:00;;;;;;;47.80;27.38;;;;;;;2.91;100.00;100332.28;4987645;28;20046;-78
2021/04/11 05:10:44;;;;;;;;;;;;;;;2.88;100.00;100332.56;5014353;28;20105;-80
2021/04/11 05:13:23;;;;;;;47.97;28.98;;;;;;;2.85;100.00;100333.63;4977105;28;19921;-80
2021/04/11 05:15:57;;;;;;;54.10;27.57;;;;;;;2.87;100.00;100326.38;5001932;28;20042;-78
2021/04/11 05:18:38;;;;;;;48.13;28.95;;;;;;;2.89;100.00;100335.06;4988279;28;20293;-80
2021/04/11 05:21:11;;;;;;;48.85;28.33;;;;;;;2.89;100.00;100345.66;4974746;28;20046;-79
2021/04/11 05:23:46;;;;;;;48.17;25.92;;;;;;;2.92;100.00;100339.25;4980032;28;20446;-80
2021/04/11 05:26:14;;;;;;;48.17;26.83;;;;;;;2.97;100.00;100341.56;4987224;28;20662;-79
2021/04/11 05:28:53;;;;;;;43.42;27.13;;;;;;;2.97;100.00;100346.84;4986254;28;20046;-79
2021/04/11 05:31:26;;;;;;;45.28;26.38;;;;;;;2.94;100.00;100342.66;4982338;28;20526;-80
2021/04/11 05:33:54;;;;;;;51.70;28.60;;;;;;;2.97;100.00;100341.56;4976191;28;20038;-81
2021/04/11 05:36:57;;;;;;;48.33;28.45;;;;;;;2.96;100.00;100339.84;5002954;28;20053;-81
2021/04/11 05:39:56;;;;;;;44.97;27.45;;;;;;;2.94;100.00;100356.72;4971972;28;20089;-79
2021/04/11 05:42:35;;;;;;;47.35;26.02;;;;;;;2.98;100.00;100357.31;4983439;28;20548;-79
2021/04/11 05:45:18;;;;;;;46.35;27.75;;;;;;;3.00;100.00;100373.09;4981057;28;20589;-80
2021/04/11 05:48:22;;;;;;;47.70;27.38;;;;;;;2.94;100.00;100380.59;4998058;28;20411;-80
2021/04/11 05:51:18;;;;;;;43.38;25.63;;;;;;;2.94;100.00;100383.25;4985216;28;20155;-81
2021/04/11 05:54:02;;;;;;;41.30;23.90;;;;;;;2.95;100.00;100392.03;4974306;28;20133;-79
2021/04/11 05:56:42;;;;;;;38.30;22.38;;;;;;;2.96;100.00;100403.47;4978708;28;20096;-79
2021/04/11 05:59:14;;;;;;;32.80;19.95;;;;;;;2.96;100.00;100398.16;4985825;28;20047;-79
2021/04/11 06:01:56;;;;;;;35.63;20.67;;;;;;;2.96;100.00;100396.34;4983914;28;20035;-79
2021/04/11 06:04:46;;;;;;;40.45;23.50;;;;;;;2.94;100.00;100401.78;4978543;28;20517;-77
2021/04/11 06:07:28;;;;;;;34.92;20.83;;;;;;;2.97;100.00;100415.78;4976856;28;20065;-80
2021/04/11 06:10:04;;;;;;;35.55;20.75;;;;;;;2.97;100.00;100421.91;4978308;28;20034;-77
2021/04/11 06:12:48;;;;;;;34.30;20.95;;;;;;;2.99;100.00;100419.94;4987738;28;20053;-78
2021/04/11 06:15:39;;;;;;;29.48;19.80;;;;;;;2.97;100.00;100436.97;4983614;28;20120;-80
2021/04/11 06:18:07;;;;;;;22.88;15.70;;;;;;;2.96;100.00;100424.66;4985243;28;20038;-79
2021/04/11 06:20:33;;;;;;;26.33;16.58;;;;;;;2.98;100.00;100422.75;4987032;28;20129;-81
2021/04/11 06:23:19;;;;;;;23.83;16.63;;;;;;;3.03;100.00;100429.38;4985357;28;20414;-82
2021/04/11 06:25:55;;;;;;;24.83;15.10;;;;;;;3.00;100.00;100439.38;4971892;28;20169;-79
2021/04/11 06:28:32;;;;;;;27.38;15.15;;;;;;;3.04;100.00;100439.00;4969901;28;20043;-80
2021/04/11 06:31:21;;;;;;;22.30;14.80;;;;;;;3.06;100.00;100437.06;4977026;28;20090;-81
2021/04/11 06:33:52;;;;;;;23.23;15.40;;;;;;;3.00;100.00;100448.16;4962181;28;20050;-77
2021/04/11 06:36:25;;;;;;;20.60;13.10;;;;;;;3.04;100.00;100454.06;4972511;28;20042;-78
2021/04/11 06:38:55;;;;;;;20.02;14.02;;;;;;;3.04;100.00;100454.06;4983783;28;20503;-77
2021/04/11 06:41:58;;;;;;;21.13;13.43;;;;;;;3.06;100.00;100460.94;4988358;28;20094;-80
2021/04/11 06:44:40;;;;;;;17.13;12.02;;;;;;;3.03;100.00;100482.38;4984342;28;20057;-78
2021/04/11 06:47:42;;;;;;;18.17;11.15;;;;;;;2.99;100.00;100462.38;4979201;28;20513;-77
2021/04/11 06:50:26;;;;;;;17.30;11.35;;;;;;;2.97;100.00;100464.31;4959915;28;20107;-79
2021/04/11 06:53:21;;;;;;;13.52;10.30;;;;;;;3.04;100.00;100469.97;4966003;28;20093;-78
2021/04/11 06:55:46;;;;;;;17.25;11.63;;;;;;;3.06;100.00;100470.69;4965562;28;20089;-78
2021/04/11 06:58:24;;;;;;;12.48;9.15;;;;;;;3.06;100.00;100484.78;4985882;28;20075;-78
2021/04/11 07:01:20;;;;;;;12.40;8.63;;;;;;;3.09;100.00;100481.88;4964866;28;20053;-78
2021/04/11 07:04:14;;;;;;;14.43;9.73;;;;;;;3.06;100.00;100489.25;4951392;28;20519;-80
2021/04/11 07:06:49;;;;;;;12.85;8.63;;;;;;;3.04;100.00;100488.53;4999657;28;20057;-76
2021/04/11 07:09:35;;;;;;;14.20;8.13;;;;;;;3.03;100.00;100487.69;4992648;28;20038;-79
2021/04/11 07:12:13;;;;;;;10.55;8.30;;;;;;;3.12;100.00;100484.28;4967473;28;20043;-80
2021/04/11 07:15:12;;;;;;;9.93;7.20;;;;;;;3.04;100.00;100486.72;4972293;28;20093;-78
2021/04/11 07:17:55;;;;;;;10.57;6.97;;;;;;;3.05;100.00;100479.59;4962712;28;20051;-79
2021/04/11 07:20:28;;;;;;;7.22;5.88;;;;;;;3.02;100.00;100495.75;4968624;28;20047;-76
2021/04/11 07:22:59;;;;;;;7.13;5.75;;;;;;;3.04;100.00;100499.13;4959540;28;20516;-79
2021/04/11 07:25:43;;;;;;;7.85;6.15;;;;;;;3.07;100.00;100512.97;4972221;28;20046;-77
2021/04/11 07:28:37;;;;;;;8.48;6.18;;;;;;;3.07;100.00;100526.22;4991929;28;20089;-78
2021/04/11 07:31:17;;;;;;;7.30;5.70;;;;;;;3.08;100.00;100535.88;4972503;28;20078;-79
2021/04/11 07:34:01;;;;;;;7.13;4.60;;;;;;;3.11;100.00;100533.00;4983228;28;20138;-77
2021/04/11 07:36:44;;;;;;;7.82;5.43;;;;;;;3.17;100.00;100526.34;4991536;28;20047;-77
2021/04/11 07:39:17;;;;;;;7.80;5.18;;;;;;;3.24;100.00;100530.19;4997048;28;20590;-78
2021/04/11 07:42:03;;;;;;;8.05;4.90;;;;;;;3.21;100.00;100517.19;4977972;28;20077;-75
2021/04/11 07:45:22;;;;;;;6.43;4.90;;;;;;;3.22;100.00;100516.19;4978197;28;20129;-79
2021/04/11 07:48:24;;;;;;;8.23;5.30;;;;;;;3.26;100.00;100527.41;4929836;28;20067;-77
2021/04/11 07:51:25;;;;;;;5.85;4.57;;;;;;;3.29;100.00;100533.31;4966585;28;20050;-80
2021/04/11 07:54:03;;;;;;;6.40;4.38;;;;;;;3.27;100.00;100537.06;4959678;28;20666;-78
2021/04/11 07:56:49;;;;;;;6.13;4.25;;;;;;;3.28;100.00;100531.66;4976644;28;20046;-78
2021/04/11 07:59:21;;;;;;;6.55;4.47;;;;;;;3.29;100.00;100535.13;4978159;28;20051;-79
2021/04/11 08:02:24;;;;;;;4.82;3.30;;;;;;;3.34;100.00;100543.56;4983321;28;20043;-75
2021/04/11 08:05:14;;;;;;;6.43;3.50;;;;;;;3.39;100.00;100550.19;5011024;28;20380;-77
2021/04/11 08:07:58;;;;;;;5.38;3.25;;;;;;;3.43;100.00;100561.38;4987932;28;20052;-79
2021/04/11 08:10:42;;;;;;;4.65;3.13;;;;;;;3.53;100.00;100572.09;4962189;28;20047;-78
2021/04/11 08:13:37;;;;;;;4.03;2.70;;;;;;;3.54;100.00;100565.81;4993343;28;20039;-78
2021/04/11 08:16:44;;;;;;;4.53;2.75;;;;;;;3.70;100.00;100557.44;4979646;28;20038;-79
2021/04/11 08:19:40;;;;;;;3.33;2.50;;;;;;;3.89;100.00;100572.72;4978832;28;20112;-78
2021/04/11 08:22:18;;;;;;;3.88;1.85;;;;;;;3.92;100.00;100578.59;4984550;28;20538;-80
2021/04/11 08:24:56;;;;;;;2.15;1.75;;;;;;;3.80;100.00;100598.22;5022552;28;20057;-79
2021/04/11 08:27:55;;;;;;;3.03;1.83;;;;;;;3.74;100.00;100591.59;4984160;28;20038;-77
2021/04/11 08:30:53;;;;;;;3.95;1.88;;;;;;;3.82;100.00;100599.75;4988659;28;20388;-79
2021/04/11 08:33:26;;;;;;;2.80;1.88;;;;;;;3.77;100.00;100596.66;5017998;28;20046;-77
2021/04/11 08:36:30;;;;;;;4.22;1.85;;;;;;;3.81;100.00;100606.03;4991518;28;20051;-77
2021/04/11 08:39:15;;;;;;;2.50;2.10;;;;;;;3.94;100.00;100624.47;4996740;28;20088;-77
2021/04/11 08:42:03;;;;;;;3.45;1.98;;;;;;;3.95;100.00;100625.31;5001679;28;20504;-80
2021/04/11 08:44:35;;;;;;;3.13;2.40;;;;;;;4.08;100.00;100618.00;5020330;28;20053;-80
2021/04/11 08:47:36;;;;;;;7.22;3.50;;;;;;;4.16;100.00;100626.19;4987939;28;20066;-79
2021/04/11 08:50:10;;;;;;;3.65;2.60;;;;;;;4.16;100.00;100626.19;4984762;28;20049;-80
2021/04/11 08:52:55;;;;;;;6.03;3.95;;;;;;;4.20;100.00;100629.41;5016823;28;20145;-80
2021/04/11 08:55:59;;;;;;;3.38;2.17;;;;;;;4.21;100.00;100631.97;4990185;28;20061;-80
2021/04/11 08:58:31;;;;;;;3.03;1.92;;;;;;;4.30;100.00;100644.47;4987648;28;20057;-78
2021/04/11 09:01:27;;;;;;;2.63;1.73;;;;;;;4.35;100.00;100632.66;4991621;28;20510;-79
2021/04/11 09:04:11;;;;;;;3.13;1.90;;;;;;;4.38;100.00;100641.19;4989171;28;20438;-77
2021/04/11 09:06:43;;;;;;;2.38;1.63;;;;;;;4.43;100.00;100643.44;4993170;28;20518;-77
2021/04/11 09:09:34;;;;;;;2.20;1.40;;;;;;;4.40;98.34;100646.38;5001920;28;20507;-77
2021/04/11 09:12:24;;;;;;;3.00;1.73;;;;;;;4.45;99.04;100652.13;4989797;28;20042;-78
2021/04/11 09:15:14;;;;;;;3.03;1.80;;;;;;;4.43;98.38;100644.31;4995480;28;20122;-78
2021/04/11 09:17:50;;;;;;;2.45;1.52;;;;;;;4.40;97.44;100652.53;4985489;28;20093;-79
2021/04/11 09:20:52;;;;;;;3.03;1.80;;;;;;;4.39;97.69;100656.16;4989322;28;20042;-78
2021/04/11 09:23:26;;;;;;;2.92;2.10;;;;;;;4.32;97.43;100659.47;4983102;28;20583;-77
2021/04/11 09:26:22;;;;;;;3.47;1.80;;;;;;;4.26;97.32;100666.13;4992167;28;20403;-77
2021/04/11 09:28:55;;;;;;;3.28;2.00;;;;;;;4.28;96.98;100662.34;4969371;28;20069;-81
2021/04/11 09:31:32;;;;;;;3.90;2.30;;;;;;;4.36;97.50;100666.19;5004745;28;20122;-80
2021/04/11 09:34:35;;;;;;;4.03;2.13;;;;;;;4.44;97.79;100677.03;5001658;28;20073;-77
2021/04/11 09:37:18;;;;;;;4.78;2.45;;;;;;;4.52;97.30;100687.88;4999782;28;20095;-80
2021/04/11 09:40:02;;;;;;;6.68;2.13;;;;;;;4.56;96.16;100683.97;4988867;28;21041;-76
2021/04/11 09:42:36;;;;;;;5.47;2.55;;;;;;;4.56;95.00;100683.16;4991296;28;20046;-79
2021/04/11 09:45:34;;;;;;;4.78;1.80;;;;;;;4.51;93.37;100686.16;4989332;28;20046;-79
2021/04/11 09:48:27;;;;;;;3.95;2.35;;;;;;;4.56;94.00;100689.28;4982555;28;20046;-79
2021/04/11 09:51:01;;;;;;;3.70;1.90;;;;;;;4.58;93.09;100691.84;4982258;28;20050;-77
2021/04/11 09:54:04;;;;;;;4.00;2.10;;;;;;;4.66;92.70;100706.19;4987815;28;20184;-80
2021/04/11 09:57:03;;;;;;;3.95;2.08;;;;;;;4.71;91.94;100681.84;4983531;28;20050;-79
2021/04/11 09:59:47;;;;;;;5.55;2.00;;;;;;;4.85;92.92;100696.66;4987542;28;20034;-78
2021/04/11 10:02:26;;;;;;;6.95;4.25;;;;;;;4.95;92.63;100689.59;4983601;28;20479;-77
2021/04/11 10:05:05;;;;;;;4.28;2.13;;;;;;;4.96;91.01;100715.19;4989828;28;20073;-79
2021/04/11 10:07:59;;;;;;;3.28;1.90;;;;;;;4.95;90.73;100718.84;4988277;28;20089;-79
2021/04/11 10:10:45;;;;;;;5.22;2.20;;;;;;;4.92;89.35;100719.94;4989071;28;20372;-77
2021/04/11 10:13:35;;;;;;;3.13;1.90;;;;;;;4.94;90.00;100723.28;4988638;28;20435;-80
2021/04/11 10:16:20;;;;;;;3.78;1.92;;;;;;;4.90;89.29;100723.69;4990645;28;20045;-77
2021/04/11 10:18:58;;;;;;;4.47;2.10;;;;;;;4.91;88.82;100734.19;4988625;28;20038;-77
2021/04/11 10:22:02;;;;;;;4.50;2.20;;;;;;;4.85;88.73;100736.53;4987768;28;20038;-77
2021/04/11 10:24:31;;;;;;;4.18;1.90;;;;;;;4.78;90.20;100738.88;4980878;28;20077;-80
2021/04/11 10:27:20;;;;;;;4.20;2.53;;;;;;;4.82;91.46;100745.59;4987720;28;20046;-79
2021/04/11 10:29:47;;;;;;;4.25;1.90;;;;;;;4.82;90.00;100739.44;5006589;28;20030;-80
2021/04/11 10:32:37;;;;;;;6.50;2.47;;;;;;;4.88;89.70;100742.44;4970608;28;20513;-80
2021/04/11 10:35:07;;;;;;;5.80;2.67;;;;;;;4.95;89.95;100740.13;4982289;28;20050;-80
2021/04/11 10:37:37;;;;;;;4.80;2.33;;;;;;;5.01;89.47;100736.94;4988417;28;20462;-78
2021/04/11 10:40:32;;;;;;;5.50;2.22;;;;;;;5.04;88.68;100735.84;5002415;28;20039;-77
2021/04/11 10:43:14;;;;;;;4.88;2.10;;;;;;;5.01;88.37;100739.59;4999399;28;20141;-80
2021/04/11 10:45:53;;;;;;;5.15;2.53;;;;;;;5.04;89.66;100751.78;4987131;28;20049;-79
2021/04/11 10:48:27;;;;;;;5.55;2.05;;;;;;;5.06;88.84;100761.31;4989347;28;20037;-77
2021/04/11 10:51:04;;;;;;;4.90;2.17;;;;;;;5.14;89.52;100763.31;4989816;28;20045;-79
2021/04/11 10:53:55;;;;;;;5.65;2.08;;;;;;;5.25;89.64;100765.91;4985499;28;20141;-78
2021/04/11 10:56:40;;;;;;;4.10;1.75;;;;;;;5.27;88.12;100771.13;4988037;28;20038;-77
2021/04/11 10:59:06;;;;;;;5.65;2.05;;;;;;;5.30;86.94;100766.38;4987866;28;20089;-77
2021/04/11 11:01:50;;;;;;;4.65;1.67;;;;;;;5.33;87.16;100765.28;4984655;28;20054;-79
2021/04/11 11:04:28;;;;;;;7.20;2.80;;;;;;;5.30;86.89;100774.38;4987351;28;20034;-80
2021/04/11 11:07:24;;;;;;;4.28;1.77;;;;;;;5.31;86.96;100781.34;4993770;28;20112;-77
2021/04/11 11:10:20;;;;;;;5.10;2.40;;;;;;;5.29;86.02;100798.44;4985967;28;20133;-77
2021/04/11 11:13:07;;;;;;;5.60;2.17;;;;;;;5.25;86.01;100789.03;4998856;28;20077;-79
2021/04/11 11:16:20;;;;;;;5.88;2.30;;;;;;;5.25;87.26;100799.66;4983246;28;20048;-78
2021/04/11 11:19:03;;;;;;;6.45;3.47;;;;;;;5.14;86.66;100795.25;4969528;28;20058;-77
2021/04/11 11:21:38;;;;;;;4.65;2.28;;;;;;;5.18;87.66;100792.22;4989274;28;20073;-80
2021/04/11 11:24:14;;;;;;;6.38;2.78;;;;;;;5.25;88.01;100797.84;4987748;28;20073;-81
2021/04/11 11:27:01;;;;;;;8.98;4.63;;;;;;;5.23;86.47;100801.59;4983069;28;20499;-80
2021/04/11 11:30:03;;;;;;;5.63;2.65;;;;;;;5.25;87.17;100799.66;4976005;28;20519;-77
2021/04/11 11:32:36;;;;;;;6.57;2.17;;;;;;;5.30;87.60;100800.97;4977062;28;20561;-78
2021/04/11 11:35:09;;;;;;;8.85;5.03;;;;;;;5.38;87.61;100826.91;4998957;28;20055;-77
2021/04/11 11:37:34;;;;;;;11.90;6.50;;;;;;;5.39;87.18;100820.63;4980559;28;20574;-80
2021/04/11 11:40:02;;;;;;;6.00;2.38;;;;;;;5.35;85.09;100827.19;4998893;28;20070;-79
2021/04/11 11:42:43;;;;;;;3.90;2.22;;;;;;;5.30;86.26;100827.59;4983280;28;20050;-77
2021/04/11 11:45:11;;;;;;;5.75;2.45;;;;;;;5.30;85.69;100832.91;4981055;28;20057;-77
2021/04/11 11:48:01;;;;;;;5.68;2.08;;;;;;;5.25;87.27;100829.78;4982904;28;20085;-77
2021/04/11 11:50:34;;;;;;;5.32;1.80;;;;;;;5.22;86.32;100830.03;4993702;28;20074;-77
2021/04/11 11:53:17;;;;;;;4.82;1.90;;;;;;;5.22;86.61;100839.84;5002333;28;20046;-79
2021/04/11 11:56:12;;;;;;;5.25;2.20;;;;;;;5.19;87.23;100830.28;4980447;28;20133;-78
2021/04/11 11:58:43;;;;;;;4.88;2.22;;;;;;;5.17;88.44;100842.88;4988813;28;20042;-76
2021/04/11 12:01:33;;;;;;;4.50;2.47;;;;;;;5.11;88.57;100844.22;5006912;28;20041;-78
2021/04/11 12:04:26;;;;;;;5.13;2.30;;;;;;;5.16;89.25;100851.84;4986751;28;20046;-79
2021/04/11 12:06:56;;;;;;;8.02;3.25;;;;;;;5.18;89.67;100845.41;4979729;28;20038;-78